createdAt,value
2023-07-20T00:06:16.285Z,2.90
2023-07-20T00:08:45.858Z,3.60
2023-07-20T00:11:15.882Z,4.07
2023-07-20T00:13:43.677Z,3.43
2023-07-20T00:16:11.601Z,3.33
2023-07-20T00:18:39.513Z,3.37
2023-07-20T00:21:07.441Z,3.40
2023-07-20T00:23:36.406Z,3.47
2023-07-20T00:26:05.775Z,3.63
2023-07-20T00:28:33.573Z,3.33
2023-07-20T00:31:02.131Z,3.63
2023-07-20T00:33:31.245Z,3.13
2023-07-20T00:36:00.556Z,3.20
2023-07-20T00:38:28.334Z,3.10
2023-07-20T00:40:56.109Z,3.30
2023-07-20T00:43:25.368Z,3.03
2023-07-20T00:45:53.814Z,3.10
2023-07-20T00:48:22.077Z,2.67
2023-07-20T00:50:50.518Z,3.13
2023-07-20T00:57:31.946Z,3.03
2023-07-20T01:00:02.551Z,3.47
2023-07-20T01:02:30.560Z,3.30
2023-07-20T01:04:58.478Z,2.93
2023-07-20T01:07:33.307Z,3.23
2023-07-20T01:10:05.093Z,3.53
2023-07-20T01:12:45.145Z,3.40
2023-07-20T01:15:14.694Z,3.40
2023-07-20T01:17:42.781Z,3.70
2023-07-20T01:20:14.603Z,3.90
2023-07-20T01:23:17.810Z,4.10
2023-07-20T01:26:14.180Z,4.00
2023-07-20T01:29:08.058Z,3.80
2023-07-20T01:31:40.183Z,3.73
2023-07-20T01:34:11.051Z,3.97
2023-07-20T01:36:40.593Z,4.20
2023-07-20T01:39:08.745Z,4.13
2023-07-20T01:41:37.180Z,4.33
2023-07-20T01:44:05.995Z,4.10
2023-07-20T01:46:34.066Z,4.10
2023-07-20T01:49:03.541Z,5.73
2023-07-20T01:51:33.557Z,4.87
2023-07-20T01:54:02.044Z,6.13
2023-07-20T01:56:30.140Z,4.37
2023-07-20T01:58:58.015Z,5.30
2023-07-20T02:01:25.960Z,4.37
2023-07-20T02:03:54.336Z,4.70
2023-07-20T02:06:23.817Z,5.03
2023-07-20T02:08:51.847Z,4.67
2023-07-20T02:11:19.715Z,5.60
2023-07-20T02:13:47.722Z,4.63
2023-07-20T02:16:15.646Z,4.60
2023-07-20T02:18:43.562Z,4.93
2023-07-20T02:21:11.894Z,4.77
2023-07-20T02:23:41.108Z,5.40
2023-07-20T02:26:08.914Z,4.50
2023-07-20T02:28:40.668Z,4.77
2023-07-20T02:31:08.779Z,4.77
2023-07-20T02:33:36.721Z,4.90
2023-07-20T02:36:04.804Z,5.67
2023-07-20T02:38:32.660Z,5.83
2023-07-20T02:41:02.029Z,5.37
2023-07-20T02:43:30.491Z,5.37
2023-07-20T02:45:58.269Z,5.63
2023-07-20T02:48:26.072Z,5.93
2023-07-20T02:50:53.895Z,5.03
2023-07-20T02:53:21.742Z,5.40
2023-07-20T02:55:49.847Z,6.67
2023-07-20T02:58:19.183Z,6.57
2023-07-20T03:00:47.057Z,6.60
2023-07-20T03:03:15.124Z,5.80
2023-07-20T03:05:43.472Z,5.90
2023-07-20T03:08:11.298Z,7.03
2023-07-20T03:10:42.778Z,4.97
2023-07-20T03:13:10.611Z,6.80
2023-07-20T03:15:40.100Z,6.97
2023-07-20T03:18:08.342Z,6.40
2023-07-20T03:20:38.034Z,6.47
2023-07-20T03:23:06.931Z,6.30
2023-07-20T03:25:34.786Z,6.73
2023-07-20T03:28:03.001Z,7.50
2023-07-20T03:30:31.010Z,6.93
2023-07-20T03:33:00.312Z,6.63
2023-07-20T03:35:28.269Z,6.83
2023-07-20T03:37:56.274Z,7.40
2023-07-20T03:40:23.866Z,6.63
2023-07-20T03:42:51.714Z,7.60
2023-07-20T03:45:19.573Z,6.80
2023-07-20T03:47:49.560Z,6.57
2023-07-20T03:50:19.061Z,7.57
2023-07-20T03:52:46.916Z,7.50
2023-07-20T03:55:14.671Z,7.03
2023-07-20T03:57:42.587Z,7.27
2023-07-20T04:00:13.382Z,8.07
2023-07-20T04:02:41.304Z,8.10
2023-07-20T04:05:09.676Z,8.00
2023-07-20T04:07:39.172Z,8.17
2023-07-20T04:10:07.782Z,8.07
2023-07-20T04:12:37.957Z,9.23
2023-07-20T04:15:07.343Z,10.87
2023-07-20T04:17:35.216Z,12.00
2023-07-20T04:20:03.894Z,13.97
2023-07-20T04:22:31.728Z,12.17
2023-07-20T04:25:01.115Z,14.17
2023-07-20T04:27:29.252Z,15.57
2023-07-20T04:29:57.068Z,13.83
2023-07-20T04:32:25.317Z,13.33
2023-07-20T04:34:53.598Z,13.17
2023-07-20T04:37:21.953Z,14.10
2023-07-20T04:39:50.491Z,12.50
2023-07-20T04:42:21.513Z,12.97
2023-07-20T04:44:49.327Z,15.53
2023-07-20T04:47:17.887Z,13.70
2023-07-20T04:49:45.928Z,14.30
2023-07-20T04:52:13.783Z,14.30
2023-07-20T04:54:41.614Z,13.60
2023-07-20T04:57:12.942Z,12.63
2023-07-20T04:59:46.945Z,12.07
2023-07-20T05:02:14.788Z,11.60
2023-07-20T05:04:42.806Z,12.73
2023-07-20T05:07:10.681Z,13.30
2023-07-20T05:09:38.526Z,11.27
2023-07-20T05:12:07.136Z,11.83
2023-07-20T05:14:34.988Z,13.33
2023-07-20T05:17:04.237Z,12.17
2023-07-20T05:19:32.282Z,12.00
2023-07-20T05:22:00.235Z,11.20
2023-07-20T05:24:28.013Z,12.00
2023-07-20T05:26:55.876Z,11.07
2023-07-20T05:29:23.836Z,10.27
2023-07-20T05:31:51.993Z,10.30
2023-07-20T05:34:22.002Z,9.30
2023-07-20T05:36:50.020Z,7.13
2023-07-20T05:39:19.108Z,5.93
2023-07-20T05:41:47.105Z,6.10
2023-07-20T05:44:14.979Z,6.73
2023-07-20T05:46:56.586Z,5.37
2023-07-20T05:49:27.049Z,5.50
2023-07-20T05:51:54.890Z,4.87
2023-07-20T05:54:22.731Z,5.20
2023-07-20T05:56:50.570Z,5.40
2023-07-20T05:59:18.568Z,5.43
2023-07-20T06:01:46.486Z,6.23
2023-07-20T06:04:14.470Z,5.50
2023-07-20T06:06:43.901Z,5.70
2023-07-20T06:09:13.099Z,5.30
2023-07-20T06:11:41.361Z,5.07
2023-07-20T06:14:09.282Z,5.93
2023-07-20T06:16:37.077Z,6.80
2023-07-20T06:19:04.929Z,6.67
2023-07-20T06:21:32.940Z,6.60
2023-07-20T06:24:02.126Z,6.57
2023-07-20T06:26:31.072Z,6.40
2023-07-20T06:28:59.412Z,7.60
2023-07-20T06:31:27.508Z,6.00
2023-07-20T06:33:55.428Z,6.40
2023-07-20T06:36:27.143Z,8.10
2023-07-20T06:43:59.387Z,11.07
2023-07-20T06:46:28.337Z,11.73
2023-07-20T06:51:27.602Z,17.50
2023-07-20T06:53:55.432Z,24.13
2023-07-20T06:56:24.861Z,22.00
2023-07-20T06:58:55.568Z,21.77
2023-07-20T07:01:24.149Z,19.87
2023-07-20T07:03:54.253Z,23.97
2023-07-20T07:06:25.212Z,22.33
2023-07-20T07:08:53.509Z,21.00
2023-07-20T07:11:21.573Z,22.50
2023-07-20T07:13:51.810Z,23.27
2023-07-20T07:16:21.362Z,13.40
2023-07-20T07:18:49.605Z,11.27
2023-07-20T07:21:17.460Z,10.87
2023-07-20T07:23:45.900Z,9.90
2023-07-20T07:26:13.909Z,11.37
2023-07-20T07:28:41.871Z,9.90
2023-07-20T07:31:10.097Z,10.10
2023-07-20T07:33:39.372Z,9.20
2023-07-20T07:36:07.596Z,12.60
2023-07-20T07:39:07.276Z,13.27
2023-07-20T07:41:23.631Z,9.67
2023-07-20T07:43:51.935Z,9.67
2023-07-20T07:46:19.891Z,9.37
2023-07-20T07:48:49.379Z,9.63
2023-07-20T07:51:17.161Z,12.03
2023-07-20T07:53:45.118Z,11.77
2023-07-20T07:56:12.955Z,8.50
2023-07-20T07:58:41.641Z,7.77
2023-07-20T08:01:09.562Z,7.67
2023-07-20T08:03:38.114Z,7.43
2023-07-20T08:06:07.524Z,7.30
2023-07-20T08:08:37.292Z,6.93
2023-07-20T08:11:07.903Z,5.47
2023-07-20T08:13:36.338Z,5.40
2023-07-20T08:16:04.579Z,5.17
2023-07-20T08:18:32.587Z,5.50
2023-07-20T08:21:00.586Z,5.50
2023-07-20T08:23:29.989Z,10.00
2023-07-20T08:25:57.993Z,9.53
2023-07-20T08:28:27.542Z,8.10
2023-07-20T08:30:55.496Z,12.30
2023-07-20T08:33:24.570Z,13.80
2023-07-20T08:35:52.568Z,10.60
2023-07-20T08:38:20.361Z,10.23
2023-07-20T08:40:49.786Z,9.03
2023-07-20T08:43:19.779Z,8.43
2023-07-20T08:45:50.986Z,3.93
2023-07-20T08:48:20.776Z,4.30
2023-07-20T08:50:51.650Z,5.87
2023-07-20T08:53:19.737Z,6.50
2023-07-20T08:55:50.730Z,6.70
2023-07-20T08:58:19.482Z,8.23
2023-07-20T09:00:48.281Z,6.50
2023-07-20T09:03:16.929Z,7.03
2023-07-20T09:05:44.895Z,4.93
2023-07-20T09:08:12.846Z,3.60
2023-07-20T09:10:40.648Z,3.00
2023-07-20T09:13:10.808Z,3.83
2023-07-20T09:15:39.250Z,2.70
2023-07-20T09:18:07.399Z,2.40
2023-07-20T09:20:35.575Z,2.20
2023-07-20T09:23:07.472Z,2.20
2023-07-20T09:25:37.233Z,2.60
2023-07-20T09:28:06.343Z,2.30
2023-07-20T09:30:36.029Z,2.10
2023-07-20T09:33:03.948Z,2.07
2023-07-20T09:35:42.640Z,2.37
2023-07-20T09:50:52.221Z,1.47
2023-07-20T09:53:20.905Z,1.43
2023-07-20T09:55:50.263Z,1.00
2023-07-20T09:58:18.820Z,1.20
2023-07-20T10:03:22.942Z,1.70
2023-07-20T10:05:56.510Z,1.80
2023-07-20T10:11:01.541Z,1.87
2023-07-20T10:13:32.065Z,2.00
2023-07-20T10:16:05.621Z,2.40
2023-07-20T10:18:40.027Z,2.57
2023-07-20T10:23:41.523Z,1.97
2023-07-20T10:26:10.037Z,1.20
2023-07-20T10:28:38.680Z,1.20
2023-07-20T10:31:10.114Z,1.00
2023-07-20T10:33:40.040Z,0.90
2023-07-20T10:36:08.508Z,0.70
2023-07-20T10:38:43.646Z,0.83
2023-07-20T10:41:21.770Z,1.07
2023-07-20T10:43:50.731Z,1.20
2023-07-20T10:46:44.560Z,1.17
2023-07-20T10:49:13.547Z,1.60
2023-07-20T10:51:42.452Z,2.20
2023-07-20T10:54:11.515Z,2.00
2023-07-20T10:56:39.555Z,2.30
2023-07-20T10:59:20.921Z,1.80
2023-07-20T11:01:51.223Z,1.83
2023-07-20T11:04:20.395Z,1.60
2023-07-20T11:06:48.623Z,1.30
2023-07-20T11:09:17.150Z,1.40
2023-07-20T11:11:46.317Z,1.30
2023-07-20T11:14:23.953Z,1.30
2023-07-20T11:16:54.456Z,1.43
2023-07-20T11:22:03.308Z,1.20
2023-07-20T11:24:32.145Z,0.90
2023-07-20T11:27:01.018Z,0.90
2023-07-20T11:29:33.017Z,0.90
2023-07-20T11:32:05.843Z,1.20
2023-07-20T11:34:35.887Z,0.90
2023-07-20T11:39:36.704Z,0.93
2023-07-20T11:42:05.485Z,1.10
2023-07-20T11:44:33.497Z,0.90
2023-07-20T11:47:05.436Z,1.10
2023-07-20T11:49:37.662Z,1.23
2023-07-20T11:52:06.581Z,0.80
2023-07-20T11:54:35.874Z,1.17
2023-07-20T11:57:04.577Z,0.93
2023-07-20T11:59:33.083Z,0.90
2023-07-20T12:02:03.524Z,1.13
2023-07-20T12:04:33.625Z,1.10
2023-07-20T12:07:01.964Z,1.10
2023-07-20T12:09:35.434Z,0.80
2023-07-20T12:12:13.483Z,0.80
2023-07-20T12:14:41.587Z,0.90
2023-07-20T12:17:11.345Z,0.90
2023-07-20T12:19:41.726Z,1.00
2023-07-20T12:22:10.209Z,0.80
2023-07-20T12:24:38.017Z,0.97
2023-07-20T12:27:06.578Z,0.97
2023-07-20T12:29:37.399Z,1.00
2023-07-20T12:32:06.230Z,0.90
2023-07-20T12:34:34.183Z,1.07
2023-07-20T12:37:05.549Z,1.00
2023-07-20T12:39:34.041Z,1.03
2023-07-20T12:42:01.856Z,1.13
2023-07-20T12:44:30.109Z,1.03
2023-07-20T12:46:58.738Z,0.80
2023-07-20T12:49:27.121Z,0.80
2023-07-20T12:51:56.941Z,0.93
2023-07-20T12:54:26.574Z,0.80
2023-07-20T12:59:28.582Z,0.80
2023-07-20T13:01:57.152Z,0.90
2023-07-20T13:04:26.314Z,1.20
2023-07-20T13:06:54.579Z,0.83
2023-07-20T13:09:23.173Z,1.13
2023-07-20T13:11:53.364Z,0.90
2023-07-20T13:14:21.610Z,0.70
2023-07-20T13:16:49.826Z,0.90
2023-07-20T13:19:17.971Z,0.70
2023-07-20T13:21:51.460Z,0.90
2023-07-20T13:24:19.794Z,0.80
2023-07-20T13:26:48.073Z,0.80
2023-07-20T13:29:18.421Z,0.90
2023-07-20T13:31:48.731Z,0.90
2023-07-20T13:34:19.619Z,0.70
2023-07-20T13:36:50.379Z,1.03
2023-07-20T13:39:18.733Z,0.70
2023-07-20T13:41:48.675Z,0.90
2023-07-20T13:44:22.781Z,0.80
2023-07-20T13:46:52.944Z,0.80
2023-07-20T13:49:23.960Z,0.80
2023-07-20T13:54:28.923Z,0.60
2023-07-20T13:56:57.839Z,0.80
2023-07-20T13:59:32.717Z,0.70
2023-07-20T14:04:35.234Z,0.70
2023-07-20T14:07:03.999Z,0.90
2023-07-20T14:09:32.479Z,0.70
2023-07-20T14:14:33.652Z,0.80
2023-07-20T14:17:02.227Z,0.70
2023-07-20T14:19:30.715Z,0.70
2023-07-20T14:22:01.232Z,0.93
2023-07-20T14:24:32.248Z,1.00
2023-07-20T14:27:01.820Z,1.10
2023-07-20T14:29:32.767Z,0.90
2023-07-20T14:32:02.449Z,0.90
2023-07-20T14:34:30.406Z,0.90
2023-07-20T14:37:01.102Z,1.20
2023-07-20T14:39:29.225Z,1.00
2023-07-20T14:41:57.274Z,0.90
2023-07-20T14:44:25.968Z,0.77
2023-07-20T14:47:07.197Z,0.90
2023-07-20T14:49:42.441Z,0.80
2023-07-20T14:54:41.717Z,0.70
2023-07-20T14:57:15.289Z,1.10
2023-07-20T14:59:44.924Z,1.00
2023-07-20T15:02:12.975Z,1.00
2023-07-20T15:04:48.358Z,1.13
2023-07-20T15:07:16.159Z,0.97
2023-07-20T15:09:46.559Z,1.10
2023-07-20T15:12:14.838Z,1.10
2023-07-20T15:14:44.462Z,0.90
2023-07-20T15:17:13.364Z,0.80
2023-07-20T15:19:42.709Z,0.90
2023-07-20T15:22:11.131Z,1.03
2023-07-20T15:24:39.433Z,1.10
2023-07-20T15:27:09.078Z,1.03
2023-07-20T15:29:36.961Z,0.93
2023-07-20T15:32:05.581Z,0.90
2023-07-20T15:34:33.560Z,1.00
2023-07-20T15:37:02.749Z,0.90
2023-07-20T15:39:30.888Z,1.00
2023-07-20T15:41:59.388Z,0.90
2023-07-20T15:44:27.275Z,0.90
2023-07-20T15:46:55.863Z,1.00
2023-07-20T15:49:25.605Z,1.00
2023-07-20T15:51:53.548Z,0.90
2023-07-20T15:54:23.085Z,0.77
2023-07-20T15:56:50.916Z,1.00
2023-07-20T15:59:19.281Z,1.20
2023-07-20T16:01:47.184Z,1.00
2023-07-20T16:04:16.103Z,1.07
2023-07-20T16:06:44.420Z,0.83
2023-07-20T16:09:12.259Z,0.97
2023-07-20T16:11:41.650Z,0.90
2023-07-20T16:14:10.741Z,1.00
2023-07-20T16:16:39.143Z,1.00
2023-07-20T16:19:07.008Z,0.90
2023-07-20T16:21:35.187Z,1.03
2023-07-20T16:24:03.222Z,0.90
2023-07-20T16:26:31.205Z,1.20
2023-07-20T16:31:31.147Z,1.00
2023-07-20T16:36:31.111Z,1.10
2023-07-20T16:49:06.155Z,0.97
2023-07-20T16:51:35.498Z,1.10
2023-07-20T16:54:04.370Z,1.03
2023-07-20T16:56:32.398Z,1.30
2023-07-20T16:59:01.757Z,1.37
2023-07-20T17:01:29.830Z,1.30
2023-07-20T17:03:57.811Z,1.23
2023-07-20T17:06:25.677Z,1.00
2023-07-20T17:08:53.568Z,1.10
2023-07-20T17:11:21.324Z,1.20
2023-07-20T17:13:49.066Z,1.10
2023-07-20T17:16:18.555Z,1.10
2023-07-20T17:18:46.372Z,1.23
2023-07-20T17:21:15.157Z,1.07
2023-07-20T17:28:47.834Z,1.10
2023-07-20T17:31:15.749Z,1.00
2023-07-20T17:33:45.306Z,0.87
2023-07-20T17:38:44.172Z,0.90
2023-07-20T17:41:14.842Z,0.93
2023-07-20T17:43:44.198Z,0.93
2023-07-20T17:48:44.505Z,1.17
2023-07-20T17:51:12.398Z,0.90
2023-07-20T17:53:40.244Z,1.30
2023-07-20T17:56:08.474Z,1.00
2023-07-20T17:58:36.465Z,1.10
2023-07-20T18:01:04.392Z,1.00
2023-07-20T18:03:32.425Z,0.80
2023-07-20T18:06:07.724Z,1.13
2023-07-20T18:08:35.865Z,1.10
2023-07-20T18:11:07.009Z,1.07
2023-07-20T18:13:34.946Z,0.93
2023-07-20T18:16:03.082Z,0.90
2023-07-20T18:18:31.695Z,1.10
2023-07-20T18:20:59.797Z,1.17
2023-07-20T18:23:29.427Z,1.37
2023-07-20T18:25:57.325Z,1.20
2023-07-20T18:28:25.192Z,1.23
2023-07-20T18:30:52.972Z,1.37
2023-07-20T18:33:20.820Z,1.10
2023-07-20T18:35:48.701Z,1.37
2023-07-20T18:38:16.628Z,1.30
2023-07-20T18:40:45.984Z,1.23
2023-07-20T18:43:13.830Z,1.23
2023-07-20T18:45:42.183Z,1.70
2023-07-20T18:48:11.561Z,1.40
2023-07-20T18:50:39.632Z,1.30
2023-07-20T18:53:07.405Z,1.50
2023-07-20T18:55:36.170Z,1.70
2023-07-20T18:58:05.452Z,1.50
2023-07-20T19:00:33.885Z,1.60
2023-07-20T19:03:01.973Z,1.50
2023-07-20T19:05:29.898Z,1.33
2023-07-20T19:07:58.244Z,1.50
2023-07-20T19:10:28.733Z,1.40
2023-07-20T19:12:56.508Z,1.30
2023-07-20T19:15:25.909Z,1.20
2023-07-20T19:17:54.267Z,1.30
2023-07-20T19:20:22.247Z,1.30
2023-07-20T19:22:50.048Z,1.30
2023-07-20T19:25:18.078Z,1.40
2023-07-20T19:27:45.876Z,1.30
2023-07-20T19:30:15.269Z,1.50
2023-07-20T19:32:44.800Z,1.50
2023-07-20T19:35:12.658Z,1.60
2023-07-20T19:37:40.684Z,1.40
2023-07-20T19:40:10.382Z,1.40
2023-07-20T19:42:38.276Z,2.13
2023-07-20T19:45:06.947Z,2.00
2023-07-20T19:47:34.804Z,1.40
2023-07-20T19:50:06.903Z,1.10
2023-07-20T19:52:36.066Z,2.83
2023-07-20T19:55:06.699Z,2.30
2023-07-20T20:00:08.829Z,1.57
2023-07-20T20:05:10.624Z,1.60
2023-07-20T20:07:39.104Z,1.20
2023-07-20T20:10:07.752Z,1.60
2023-07-20T20:12:36.154Z,2.13
2023-07-20T20:15:04.245Z,2.00
2023-07-20T20:17:32.341Z,1.60
2023-07-20T20:20:00.289Z,2.00
2023-07-20T20:22:29.730Z,1.80
2023-07-20T20:24:57.836Z,1.60
2023-07-20T20:27:26.221Z,1.60
2023-07-20T20:30:04.996Z,1.70
2023-07-20T20:32:35.551Z,1.60
2023-07-20T20:35:04.213Z,1.57
2023-07-20T20:37:33.308Z,1.97
2023-07-20T20:40:01.156Z,1.77
2023-07-20T20:42:28.893Z,1.90
2023-07-20T20:44:56.789Z,2.10
2023-07-20T20:47:24.959Z,1.70
2023-07-20T20:49:54.440Z,1.73
2023-07-20T20:52:22.186Z,1.70
2023-07-20T20:54:51.332Z,1.50
2023-07-20T20:57:19.218Z,1.77
2023-07-20T20:59:48.553Z,2.10
2023-07-20T21:02:19.042Z,1.80
2023-07-20T21:04:48.984Z,2.40
2023-07-20T21:07:17.181Z,2.30
2023-07-20T21:09:45.097Z,2.60
2023-07-20T21:12:14.757Z,2.50
2023-07-20T21:14:42.859Z,3.10
2023-07-20T21:17:10.708Z,3.30
2023-07-20T21:19:38.828Z,3.43
2023-07-20T21:22:06.876Z,3.40
2023-07-20T21:24:35.079Z,4.13
2023-07-20T21:27:02.825Z,3.23
2023-07-20T21:29:31.969Z,2.97
2023-07-20T21:31:59.951Z,3.40
2023-07-20T21:34:28.476Z,3.03
2023-07-20T21:36:56.272Z,3.13
2023-07-20T21:39:24.082Z,2.90
2023-07-20T21:41:51.881Z,2.87
2023-07-20T21:44:20.123Z,3.30
2023-07-20T21:46:50.272Z,2.70
2023-07-20T21:49:18.158Z,2.97
2023-07-20T21:51:45.911Z,3.10
2023-07-20T21:54:13.863Z,3.33
2023-07-20T21:56:41.822Z,3.33
2023-07-20T21:59:09.677Z,3.10
2023-07-20T22:04:10.478Z,3.37
2023-07-20T22:06:47.466Z,3.70
2023-07-20T22:09:15.335Z,3.90
2023-07-20T22:11:43.400Z,3.20
2023-07-20T22:14:11.242Z,2.90
2023-07-20T22:16:39.113Z,3.57
2023-07-20T22:19:07.020Z,3.90
2023-07-20T22:21:36.317Z,4.27
2023-07-20T22:24:04.363Z,3.30
2023-07-20T22:26:32.172Z,4.17
2023-07-20T22:29:00.149Z,4.03
2023-07-20T22:31:28.036Z,4.10
2023-07-20T22:33:56.861Z,4.23
2023-07-20T22:36:25.122Z,3.67
2023-07-20T22:38:55.108Z,4.10
2023-07-20T22:41:22.967Z,4.10
2023-07-20T22:43:50.827Z,4.10
2023-07-20T22:46:19.350Z,4.07
2023-07-20T22:48:47.291Z,4.30
2023-07-20T22:51:15.128Z,3.97
2023-07-20T22:53:43.003Z,4.97
2023-07-20T22:56:12.296Z,4.97
2023-07-20T22:58:40.153Z,4.80
2023-07-20T23:01:11.702Z,3.80
2023-07-20T23:03:40.043Z,4.33
2023-07-20T23:06:08.044Z,4.63
2023-07-20T23:08:37.097Z,4.47
2023-07-20T23:11:04.927Z,4.13
2023-07-20T23:13:38.295Z,3.87
2023-07-20T23:16:07.322Z,4.73
2023-07-20T23:18:36.249Z,4.47
2023-07-20T23:21:05.184Z,4.43
2023-07-20T23:23:36.337Z,4.70
2023-07-20T23:26:04.232Z,5.03
2023-07-20T23:28:32.017Z,4.57
2023-07-20T23:31:02.175Z,4.63
2023-07-20T23:33:31.078Z,5.23
2023-07-20T23:35:59.307Z,4.60
2023-07-20T23:38:27.254Z,5.00
2023-07-20T23:40:55.244Z,5.80
2023-07-20T23:43:23.417Z,4.87
2023-07-20T23:45:51.272Z,5.43
2023-07-20T23:48:20.716Z,5.20
2023-07-20T23:50:48.603Z,5.10
2023-07-20T23:53:16.379Z,5.67
2023-07-20T23:55:44.207Z,5.47
2023-07-20T23:58:12.507Z,5.63
